sensor_id;sensor_type;location;lat;lon;timestamp;pressure;altitude;pressure_sealevel;temperature;humidity
62544;BME280;48597;49.030;1.822;2023-07-24T00:01:39;99845.66;;;23.52;46.97
62544;BME280;48597;49.030;1.822;2023-07-24T00:04:05;99844.88;;;23.52;46.97
62544;BME280;48597;49.030;1.822;2023-07-24T00:06:30;99855.59;;;23.51;46.78
62544;BME280;48597;49.030;1.822;2023-07-24T00:08:55;99863.41;;;23.51;46.90
62544;BME280;48597;49.030;1.822;2023-07-24T00:11:21;99858.47;;;23.51;46.74
62544;BME280;48597;49.030;1.822;2023-07-24T00:13:46;99846.97;;;23.51;46.84
62544;BME280;48597;49.030;1.822;2023-07-24T00:16:11;99847.75;;;23.52;46.96
62544;BME280;48597;49.030;1.822;2023-07-24T00:18:37;99831.78;;;23.51;46.93
62544;BME280;48597;49.030;1.822;2023-07-24T00:21:02;99820.28;;;23.51;46.92
62544;BME280;48597;49.030;1.822;2023-07-24T00:23:27;99811.66;;;23.51;47.09
62544;BME280;48597;49.030;1.822;2023-07-24T00:25:53;99800.63;;;23.49;46.79
62544;BME280;48597;49.030;1.822;2023-07-24T00:28:19;99795.66;;;23.50;47.13
62544;BME280;48597;49.030;1.822;2023-07-24T00:30:44;99815.03;;;23.49;46.85
62544;BME280;48597;49.030;1.822;2023-07-24T00:33:09;99819.97;;;23.49;46.94
62544;BME280;48597;49.030;1.822;2023-07-24T00:35:35;99804.28;;;23.50;46.73
62544;BME280;48597;49.030;1.822;2023-07-24T00:38:00;99791.22;;;23.49;46.98
62544;BME280;48597;49.030;1.822;2023-07-24T00:40:25;99793.59;;;23.50;46.75
62544;BME280;48597;49.030;1.822;2023-07-24T00:42:51;99793.31;;;23.48;46.94
62544;BME280;48597;49.030;1.822;2023-07-24T00:45:16;99790.44;;;23.48;46.98
62544;BME280;48597;49.030;1.822;2023-07-24T00:47:45;99794.09;;;23.49;47.01
62544;BME280;48597;49.030;1.822;2023-07-24T00:50:11;99815.03;;;23.49;46.79
62544;BME280;48597;49.030;1.822;2023-07-24T00:52:36;99810.56;;;23.48;47.06
62544;BME280;48597;49.030;1.822;2023-07-24T00:55:03;99814.22;;;23.49;46.97
62544;BME280;48597;49.030;1.822;2023-07-24T00:57:28;99804.00;;;23.48;46.97
62544;BME280;48597;49.030;1.822;2023-07-24T00:59:54;99806.88;;;23.48;46.82
62544;BME280;48597;49.030;1.822;2023-07-24T01:02:19;99807.69;;;23.48;46.81
62544;BME280;48597;49.030;1.822;2023-07-24T01:04:45;99816.31;;;23.48;46.79
62544;BME280;48597;49.030;1.822;2023-07-24T01:07:11;99811.06;;;23.47;47.06
62544;BME280;48597;49.030;1.822;2023-07-24T01:09:37;99811.84;;;23.47;47.07
62544;BME280;48597;49.030;1.822;2023-07-24T01:12:31;99819.69;;;23.47;47.10
62544;BME280;48597;49.030;1.822;2023-07-24T01:15:11;99816.00;;;23.46;47.15
62544;BME280;48597;49.030;1.822;2023-07-24T01:17:44;99816.00;;;23.46;47.08
62544;BME280;48597;49.030;1.822;2023-07-24T01:20:12;99823.84;;;23.46;47.04
62544;BME280;48597;49.030;1.822;2023-07-24T01:22:48;99811.84;;;23.47;46.99
62544;BME280;48597;49.030;1.822;2023-07-24T01:27:51;99800.84;;;23.46;47.11
62544;BME280;48597;49.030;1.822;2023-07-24T01:30:19;99795.88;;;23.46;46.90
62544;BME280;48597;49.030;1.822;2023-07-24T01:32:44;99786.47;;;23.46;47.19
62544;BME280;48597;49.030;1.822;2023-07-24T01:35:10;99788.53;;;23.45;47.27
62544;BME280;48597;49.030;1.822;2023-07-24T01:37:37;99773.38;;;23.45;47.11
62544;BME280;48597;49.030;1.822;2023-07-24T01:40:08;99777.84;;;23.46;46.95
62544;BME280;48597;49.030;1.822;2023-07-24T01:42:35;99770.50;;;23.45;46.93
62544;BME280;48597;49.030;1.822;2023-07-24T01:45:02;99761.06;;;23.44;46.89
62544;BME280;48597;49.030;1.822;2023-07-24T01:47:28;99772.59;;;23.44;46.93
62544;BME280;48597;49.030;1.822;2023-07-24T01:49:53;99767.63;;;23.45;46.99
62544;BME280;48597;49.030;1.822;2023-07-24T01:52:19;99766.84;;;23.44;47.25
62544;BME280;48597;49.030;1.822;2023-07-24T01:54:44;99757.41;;;23.44;47.18
62544;BME280;48597;49.030;1.822;2023-07-24T01:57:09;99755.31;;;23.44;47.10
62544;BME280;48597;49.030;1.822;2023-07-24T01:59:35;99764.44;;;23.43;47.29
62544;BME280;48597;49.030;1.822;2023-07-24T02:02:00;99758.69;;;23.43;47.15
62544;BME280;48597;49.030;1.822;2023-07-24T02:04:25;99754.53;;;23.44;46.87
62544;BME280;48597;49.030;1.822;2023-07-24T02:06:51;99752.94;;;23.43;46.92
62544;BME280;48597;49.030;1.822;2023-07-24T02:09:18;99757.13;;;23.42;47.20
62544;BME280;48597;49.030;1.822;2023-07-24T02:11:47;99750.06;;;23.43;47.11
62544;BME280;48597;49.030;1.822;2023-07-24T02:14:13;99749.28;;;23.42;47.13
62544;BME280;48597;49.030;1.822;2023-07-24T02:16:39;99758.69;;;23.43;46.93
62544;BME280;48597;49.030;1.822;2023-07-24T02:19:05;99764.94;;;23.41;47.04
62544;BME280;48597;49.030;1.822;2023-07-24T02:21:31;99757.13;;;23.42;46.89
62544;BME280;48597;49.030;1.822;2023-07-24T02:23:56;99761.28;;;23.41;46.98
62544;BME280;48597;49.030;1.822;2023-07-24T02:26:21;99767.03;;;23.41;47.22
62544;BME280;48597;49.030;1.822;2023-07-24T02:28:47;99761.28;;;23.41;46.95
62544;BME280;48597;49.030;1.822;2023-07-24T02:31:12;99752.66;;;23.41;47.08
62544;BME280;48597;49.030;1.822;2023-07-24T02:33:38;99761.28;;;23.41;47.03
62544;BME280;48597;49.030;1.822;2023-07-24T02:36:03;99762.56;;;23.40;47.11
62544;BME280;48597;49.030;1.822;2023-07-24T02:38:28;99751.06;;;23.40;46.92
62544;BME280;48597;49.030;1.822;2023-07-24T02:40:54;99760.50;;;23.40;47.04
62544;BME280;48597;49.030;1.822;2023-07-24T02:43:19;99755.53;;;23.41;46.99
62544;BME280;48597;49.030;1.822;2023-07-24T02:45:44;99745.31;;;23.40;47.16
62544;BME280;48597;49.030;1.822;2023-07-24T02:48:10;99756.81;;;23.40;47.09
62544;BME280;48597;49.030;1.822;2023-07-24T02:50:35;99758.13;;;23.39;47.25
62544;BME280;48597;49.030;1.822;2023-07-24T02:53:01;99767.53;;;23.39;47.22
62544;BME280;48597;49.030;1.822;2023-07-24T02:55:26;99766.75;;;23.39;47.14
62544;BME280;48597;49.030;1.822;2023-07-24T02:57:51;99758.91;;;23.39;46.99
62544;BME280;48597;49.030;1.822;2023-07-24T03:00:17;99761.78;;;23.39;46.97
62544;BME280;48597;49.030;1.822;2023-07-24T03:02:42;99747.41;;;23.39;47.20
62544;BME280;48597;49.030;1.822;2023-07-24T03:05:08;99755.25;;;23.39;47.11
62544;BME280;48597;49.030;1.822;2023-07-24T03:07:34;99752.34;;;23.39;47.01
62544;BME280;48597;49.030;1.822;2023-07-24T03:10:00;99755.25;;;23.39;47.29
62544;BME280;48597;49.030;1.822;2023-07-24T03:12:25;99742.94;;;23.38;47.09
62544;BME280;48597;49.030;1.822;2023-07-24T03:14:51;99745.81;;;23.38;47.07
62544;BME280;48597;49.030;1.822;2023-07-24T03:17:16;99740.84;;;23.39;47.26
62544;BME280;48597;49.030;1.822;2023-07-24T03:19:41;99746.63;;;23.39;47.14
62544;BME280;48597;49.030;1.822;2023-07-24T03:22:07;99744.22;;;23.37;47.05
62544;BME280;48597;49.030;1.822;2023-07-24T03:24:33;99738.47;;;23.37;46.90
62544;BME280;48597;49.030;1.822;2023-07-24T03:26:59;99736.41;;;23.38;47.10
62544;BME280;48597;49.030;1.822;2023-07-24T03:29:25;99734.31;;;23.38;47.25
62544;BME280;48597;49.030;1.822;2023-07-24T03:31:51;99733.53;;;23.38;47.09
62544;BME280;48597;49.030;1.822;2023-07-24T03:34:16;99737.72;;;23.37;47.16
62544;BME280;48597;49.030;1.822;2023-07-24T03:36:42;99735.59;;;23.37;47.08
62544;BME280;48597;49.030;1.822;2023-07-24T03:39:09;99729.84;;;23.37;47.06
62544;BME280;48597;49.030;1.822;2023-07-24T03:41:34;99722.81;;;23.38;47.06
62544;BME280;48597;49.030;1.822;2023-07-24T03:44:00;99726.22;;;23.37;47.06
62544;BME280;48597;49.030;1.822;2023-07-24T03:46:25;99717.59;;;23.37;47.14
62544;BME280;48597;49.030;1.822;2023-07-24T03:48:51;99714.72;;;23.37;47.27
62544;BME280;48597;49.030;1.822;2023-07-24T03:51:16;99713.13;;;23.36;47.18
62544;BME280;48597;49.030;1.822;2023-07-24T03:53:42;99706.09;;;23.37;47.14
62544;BME280;48597;49.030;1.822;2023-07-24T03:56:07;99706.59;;;23.35;47.23
62544;BME280;48597;49.030;1.822;2023-07-24T03:58:33;99713.94;;;23.36;47.08
62544;BME280;48597;49.030;1.822;2023-07-24T04:00:58;99710.25;;;23.36;47.08
62544;BME280;48597;49.030;1.822;2023-07-24T04:03:23;99710.25;;;23.36;47.06
62544;BME280;48597;49.030;1.822;2023-07-24T04:05:49;99706.59;;;23.35;47.31
62544;BME280;48597;49.030;1.822;2023-07-24T04:08:14;99710.25;;;23.36;47.31
62544;BME280;48597;49.030;1.822;2023-07-24T04:10:40;99705.00;;;23.34;47.24
62544;BME280;48597;49.030;1.822;2023-07-24T04:13:05;99705.00;;;23.34;47.29
62544;BME280;48597;49.030;1.822;2023-07-24T04:15:31;99710.25;;;23.36;47.25
62544;BME280;48597;49.030;1.822;2023-07-24T04:17:56;99713.63;;;23.34;47.16
62544;BME280;48597;49.030;1.822;2023-07-24T04:20:21;99720.97;;;23.35;47.32
62544;BME280;48597;49.030;1.822;2023-07-24T04:22:47;99703.72;;;23.35;47.15
62544;BME280;48597;49.030;1.822;2023-07-24T04:25:12;99702.91;;;23.35;47.51
62544;BME280;48597;49.030;1.822;2023-07-24T04:27:37;99705.00;;;23.34;47.19
62544;BME280;48597;49.030;1.822;2023-07-24T04:30:03;99702.13;;;23.34;47.34
62544;BME280;48597;49.030;1.822;2023-07-24T04:32:28;99708.38;;;23.33;47.20
62544;BME280;48597;49.030;1.822;2023-07-24T04:34:54;99702.63;;;23.33;47.27
62544;BME280;48597;49.030;1.822;2023-07-24T04:37:19;99705.50;;;23.33;47.45
62544;BME280;48597;49.030;1.822;2023-07-24T04:39:45;99696.88;;;23.33;47.30
62544;BME280;48597;49.030;1.822;2023-07-24T04:42:10;99701.84;;;23.32;47.24
62544;BME280;48597;49.030;1.822;2023-07-24T04:44:35;99701.84;;;23.32;47.20
62544;BME280;48597;49.030;1.822;2023-07-24T04:47:01;99708.38;;;23.33;47.28
62544;BME280;48597;49.030;1.822;2023-07-24T04:49:30;99705.50;;;23.33;47.35
62544;BME280;48597;49.030;1.822;2023-07-24T04:51:58;99702.63;;;23.33;47.17
62544;BME280;48597;49.030;1.822;2023-07-24T04:54:23;99705.50;;;23.33;47.59
62544;BME280;48597;49.030;1.822;2023-07-24T04:56:49;99708.38;;;23.33;47.44
62544;BME280;48597;49.030;1.822;2023-07-24T04:59:14;99706.78;;;23.32;47.21
62544;BME280;48597;49.030;1.822;2023-07-24T05:01:39;99706.78;;;23.32;47.43
62544;BME280;48597;49.030;1.822;2023-07-24T05:04:05;99706.78;;;23.32;47.17
62544;BME280;48597;49.030;1.822;2023-07-24T05:06:30;99708.09;;;23.31;47.44
62544;BME280;48597;49.030;1.822;2023-07-24T05:08:55;99708.09;;;23.31;47.36
62544;BME280;48597;49.030;1.822;2023-07-24T05:11:21;99702.34;;;23.31;47.42
62544;BME280;48597;49.030;1.822;2023-07-24T05:13:46;99704.41;;;23.30;47.35
62544;BME280;48597;49.030;1.822;2023-07-24T05:16:12;99701.53;;;23.30;47.14
62544;BME280;48597;49.030;1.822;2023-07-24T05:18:37;99702.34;;;23.31;47.20
62544;BME280;48597;49.030;1.822;2023-07-24T05:21:02;99698.66;;;23.30;47.21
62544;BME280;48597;49.030;1.822;2023-07-24T05:23:28;99697.88;;;23.30;47.50
62544;BME280;48597;49.030;1.822;2023-07-24T05:26:00;99699.47;;;23.31;47.27
62544;BME280;48597;49.030;1.822;2023-07-24T05:28:26;99704.41;;;23.30;47.47
62544;BME280;48597;49.030;1.822;2023-07-24T05:30:52;99707.28;;;23.30;47.34
62544;BME280;48597;49.030;1.822;2023-07-24T05:33:18;99709.38;;;23.30;47.51
62544;BME280;48597;49.030;1.822;2023-07-24T05:35:43;99704.91;;;23.29;47.41
62544;BME280;48597;49.030;1.822;2023-07-24T05:38:09;99712.25;;;23.30;47.40
62544;BME280;48597;49.030;1.822;2023-07-24T05:40:34;99705.72;;;23.29;47.52
62544;BME280;48597;49.030;1.822;2023-07-24T05:43:00;99697.09;;;23.29;47.21
62544;BME280;48597;49.030;1.822;2023-07-24T05:45:26;99694.22;;;23.29;47.25
62544;BME280;48597;49.030;1.822;2023-07-24T05:47:52;99698.66;;;23.30;47.47
62544;BME280;48597;49.030;1.822;2023-07-24T05:50:17;99697.88;;;23.30;47.42
62544;BME280;48597;49.030;1.822;2023-07-24T05:52:43;99689.25;;;23.30;47.36
62544;BME280;48597;49.030;1.822;2023-07-24T05:55:08;99692.13;;;23.30;47.29
62544;BME280;48597;49.030;1.822;2023-07-24T05:57:34;99699.16;;;23.29;47.32
62544;BME280;48597;49.030;1.822;2023-07-24T05:59:59;99713.53;;;23.29;47.49
62544;BME280;48597;49.030;1.822;2023-07-24T06:02:24;99717.22;;;23.29;47.21
62544;BME280;48597;49.030;1.822;2023-07-24T06:04:50;99709.38;;;23.30;47.24
62544;BME280;48597;49.030;1.822;2023-07-24T06:07:15;99718.00;;;23.30;47.24
62544;BME280;48597;49.030;1.822;2023-07-24T06:09:41;99720.88;;;23.30;47.54
62544;BME280;48597;49.030;1.822;2023-07-24T06:12:06;99713.53;;;23.29;47.54
62544;BME280;48597;49.030;1.822;2023-07-24T06:14:32;99728.72;;;23.29;47.56
62544;BME280;48597;49.030;1.822;2023-07-24T06:16:57;99727.91;;;23.29;47.22
62544;BME280;48597;49.030;1.822;2023-07-24T06:19:22;99718.50;;;23.28;47.38
62544;BME280;48597;49.030;1.822;2023-07-24T06:21:48;99718.50;;;23.28;47.57
62544;BME280;48597;49.030;1.822;2023-07-24T06:24:13;99736.56;;;23.29;47.45
62544;BME280;48597;49.030;1.822;2023-07-24T06:26:39;99722.97;;;23.29;47.48
62544;BME280;48597;49.030;1.822;2023-07-24T06:29:05;99730.00;;;23.28;47.38
62544;BME280;48597;49.030;1.822;2023-07-24T06:31:30;99736.56;;;23.29;47.44
62544;BME280;48597;49.030;1.822;2023-07-24T06:33:55;99737.84;;;23.28;47.44
62544;BME280;48597;49.030;1.822;2023-07-24T06:36:21;99732.88;;;23.28;47.41
62544;BME280;48597;49.030;1.822;2023-07-24T06:38:46;99735.75;;;23.28;47.58
62544;BME280;48597;49.030;1.822;2023-07-24T06:41:13;99732.09;;;23.28;47.49
62544;BME280;48597;49.030;1.822;2023-07-24T06:43:41;99729.22;;;23.28;47.55
62544;BME280;48597;49.030;1.822;2023-07-24T06:46:07;99733.66;;;23.29;47.55
62544;BME280;48597;49.030;1.822;2023-07-24T06:48:32;99729.22;;;23.28;47.57
62544;BME280;48597;49.030;1.822;2023-07-24T06:50:57;99730.00;;;23.28;47.34
62544;BME280;48597;49.030;1.822;2023-07-24T06:53:23;99737.84;;;23.28;47.41
62544;BME280;48597;49.030;1.822;2023-07-24T06:55:48;99744.38;;;23.28;47.53
62544;BME280;48597;49.030;1.822;2023-07-24T06:58:13;99750.94;;;23.29;47.39
62544;BME280;48597;49.030;1.822;2023-07-24T07:00:39;99752.22;;;23.28;47.41
62544;BME280;48597;49.030;1.822;2023-07-24T07:03:04;99742.78;;;23.27;47.46
62544;BME280;48597;49.030;1.822;2023-07-24T07:05:31;99744.38;;;23.28;47.39
62544;BME280;48597;49.030;1.822;2023-07-24T07:07:57;99747.25;;;23.28;47.46
62544;BME280;48597;49.030;1.822;2023-07-24T07:10:22;99747.25;;;23.28;47.54
62544;BME280;48597;49.030;1.822;2023-07-24T07:12:48;99748.03;;;23.29;47.66
62544;BME280;48597;49.030;1.822;2023-07-24T07:15:13;99757.16;;;23.27;47.40
62544;BME280;48597;49.030;1.822;2023-07-24T07:17:39;99762.44;;;23.29;47.79
62544;BME280;48597;49.030;1.822;2023-07-24T07:20:05;99755.09;;;23.28;47.78
62544;BME280;48597;49.030;1.822;2023-07-24T07:22:30;99753.81;;;23.29;47.34
62544;BME280;48597;49.030;1.822;2023-07-24T07:24:56;99761.34;;;23.26;47.72
62544;BME280;48597;49.030;1.822;2023-07-24T07:27:21;99768.19;;;23.29;47.69
62544;BME280;48597;49.030;1.822;2023-07-24T07:29:47;99771.06;;;23.29;47.74
62544;BME280;48597;49.030;1.822;2023-07-24T07:32:12;99776.50;;;23.27;47.47
62544;BME280;48597;49.030;1.822;2023-07-24T07:34:37;99772.34;;;23.28;47.56
62544;BME280;48597;49.030;1.822;2023-07-24T07:37:04;99773.94;;;23.29;47.49
62544;BME280;48597;49.030;1.822;2023-07-24T07:39:30;99776.00;;;23.28;47.46
62544;BME280;48597;49.030;1.822;2023-07-24T07:41:56;99786.22;;;23.29;47.62
62544;BME280;48597;49.030;1.822;2023-07-24T07:44:21;99776.81;;;23.29;47.46
62544;BME280;48597;49.030;1.822;2023-07-24T07:46:47;99779.69;;;23.29;47.63
62544;BME280;48597;49.030;1.822;2023-07-24T07:49:12;99788.31;;;23.29;47.37
62544;BME280;48597;49.030;1.822;2023-07-24T07:51:37;99778.88;;;23.28;47.41
62544;BME280;48597;49.030;1.822;2023-07-24T07:54:03;99784.63;;;23.28;47.55
62544;BME280;48597;49.030;1.822;2023-07-24T07:56:28;99789.59;;;23.28;47.62
62544;BME280;48597;49.030;1.822;2023-07-24T07:58:53;99776.81;;;23.29;47.52
62544;BME280;48597;49.030;1.822;2023-07-24T08:01:19;99782.56;;;23.29;47.53
62544;BME280;48597;49.030;1.822;2023-07-24T08:03:45;99776.81;;;23.29;47.61
62544;BME280;48597;49.030;1.822;2023-07-24T08:06:10;99775.22;;;23.28;47.72
62544;BME280;48597;49.030;1.822;2023-07-24T08:08:36;99777.59;;;23.29;47.76
62544;BME280;48597;49.030;1.822;2023-07-24T08:11:05;99785.44;;;23.29;47.78
62544;BME280;48597;49.030;1.822;2023-07-24T08:13:31;99778.88;;;23.28;47.52
62544;BME280;48597;49.030;1.822;2023-07-24T08:15:57;99780.47;;;23.29;47.70
62544;BME280;48597;49.030;1.822;2023-07-24T08:18:24;99770.25;;;23.28;47.62
62544;BME280;48597;49.030;1.822;2023-07-24T08:20:49;99785.44;;;23.29;47.49
62544;BME280;48597;49.030;1.822;2023-07-24T08:23:15;99786.72;;;23.28;47.64
62544;BME280;48597;49.030;1.822;2023-07-24T08:25:50;99783.34;;;23.29;47.58
62544;BME280;48597;49.030;1.822;2023-07-24T08:28:16;99781.25;;;23.30;47.54
62544;BME280;48597;49.030;1.822;2023-07-24T08:30:41;99778.88;;;23.28;47.34
62544;BME280;48597;49.030;1.822;2023-07-24T08:33:07;99782.56;;;23.29;47.37
62544;BME280;48597;49.030;1.822;2023-07-24T08:35:32;99776.81;;;23.29;47.58
62544;BME280;48597;49.030;1.822;2023-07-24T08:37:58;99767.38;;;23.28;47.37
62544;BME280;48597;49.030;1.822;2023-07-24T08:40:23;99777.59;;;23.29;47.53
62544;BME280;48597;49.030;1.822;2023-07-24T08:42:49;99787.50;;;23.28;47.37
62544;BME280;48597;49.030;1.822;2023-07-24T08:45:18;99787.81;;;23.30;47.34
62544;BME280;48597;49.030;1.822;2023-07-24T08:47:45;99783.34;;;23.29;47.52
62544;BME280;48597;49.030;1.822;2023-07-24T08:50:10;99780.47;;;23.29;47.28
62544;BME280;48597;49.030;1.822;2023-07-24T08:52:38;99781.25;;;23.30;47.22
62544;BME280;48597;49.030;1.822;2023-07-24T08:55:05;99774.72;;;23.29;47.52
62544;BME280;48597;49.030;1.822;2023-07-24T08:57:31;99768.97;;;23.29;47.39
62544;BME280;48597;49.030;1.822;2023-07-24T08:59:56;99777.59;;;23.29;47.31
62544;BME280;48597;49.030;1.822;2023-07-24T09:02:23;99779.19;;;23.30;47.39
62544;BME280;48597;49.030;1.822;2023-07-24T09:04:48;99783.34;;;23.29;47.56
62544;BME280;48597;49.030;1.822;2023-07-24T09:07:13;99791.97;;;23.29;47.29
62544;BME280;48597;49.030;1.822;2023-07-24T09:09:39;99781.25;;;23.30;47.39
62544;BME280;48597;49.030;1.822;2023-07-24T09:12:05;99778.38;;;23.30;47.54
62544;BME280;48597;49.030;1.822;2023-07-24T09:14:30;99775.50;;;23.30;47.42
62544;BME280;48597;49.030;1.822;2023-07-24T09:17:09;99778.38;;;23.30;47.55
62544;BME280;48597;49.030;1.822;2023-07-24T09:19:35;99773.44;;;23.30;47.26
62544;BME280;48597;49.030;1.822;2023-07-24T09:22:16;99775.50;;;23.30;47.30
62544;BME280;48597;49.030;1.822;2023-07-24T09:24:56;99778.38;;;23.30;47.25
62544;BME280;48597;49.030;1.822;2023-07-24T09:27:25;99778.38;;;23.30;47.44
62544;BME280;48597;49.030;1.822;2023-07-24T09:29:51;99780.47;;;23.29;47.27
62544;BME280;48597;49.030;1.822;2023-07-24T09:32:25;99787.81;;;23.30;47.48
62544;BME280;48597;49.030;1.822;2023-07-24T09:34:51;99778.38;;;23.30;47.51
62544;BME280;48597;49.030;1.822;2023-07-24T09:37:35;99776.31;;;23.30;47.53
62544;BME280;48597;49.030;1.822;2023-07-24T09:40:03;99784.94;;;23.30;47.27
62544;BME280;48597;49.030;1.822;2023-07-24T09:42:34;99776.31;;;23.30;47.37
62544;BME280;48597;49.030;1.822;2023-07-24T09:45:00;99786.72;;;23.28;47.47
62544;BME280;48597;49.030;1.822;2023-07-24T09:47:26;99785.44;;;23.29;47.30
62544;BME280;48597;49.030;1.822;2023-07-24T09:49:52;99789.09;;;23.29;47.45
62544;BME280;48597;49.030;1.822;2023-07-24T09:52:19;99791.47;;;23.31;47.59
62544;BME280;48597;49.030;1.822;2023-07-24T09:55:12;99800.09;;;23.31;47.38
62544;BME280;48597;49.030;1.822;2023-07-24T09:57:40;99790.69;;;23.30;47.50
62544;BME280;48597;49.030;1.822;2023-07-24T10:00:07;99792.25;;;23.31;47.47
62544;BME280;48597;49.030;1.822;2023-07-24T10:02:33;99785.72;;;23.31;47.21
62544;BME280;48597;49.030;1.822;2023-07-24T10:05:00;99797.22;;;23.31;47.32
62544;BME280;48597;49.030;1.822;2023-07-24T10:07:26;99795.94;;;23.32;47.41
62544;BME280;48597;49.030;1.822;2023-07-24T10:09:51;99800.09;;;23.31;47.45
62544;BME280;48597;49.030;1.822;2023-07-24T10:12:18;99804.56;;;23.32;47.21
62544;BME280;48597;49.030;1.822;2023-07-24T10:14:48;99799.59;;;23.32;47.58
62544;BME280;48597;49.030;1.822;2023-07-24T10:17:14;99793.06;;;23.32;47.26
62544;BME280;48597;49.030;1.822;2023-07-24T10:19:41;99793.06;;;23.32;47.52
62544;BME280;48597;49.030;1.822;2023-07-24T10:22:20;99795.44;;;23.33;47.43
62544;BME280;48597;49.030;1.822;2023-07-24T10:24:46;99787.31;;;23.32;47.20
62544;BME280;48597;49.030;1.822;2023-07-24T10:27:12;99790.97;;;23.32;47.18
62544;BME280;48597;49.030;1.822;2023-07-24T10:29:38;99791.78;;;23.33;47.65
62544;BME280;48597;49.030;1.822;2023-07-24T10:32:15;99799.91;;;23.34;47.27
62544;BME280;48597;49.030;1.822;2023-07-24T10:34:41;99801.19;;;23.33;47.22
62544;BME280;48597;49.030;1.822;2023-07-24T10:37:08;99796.22;;;23.34;47.45
62544;BME280;48597;49.030;1.822;2023-07-24T10:39:41;99793.34;;;23.34;47.40
62544;BME280;48597;49.030;1.822;2023-07-24T10:42:08;99801.97;;;23.34;47.36
62544;BME280;48597;49.030;1.822;2023-07-24T10:44:34;99804.84;;;23.34;47.40
62544;BME280;48597;49.030;1.822;2023-07-24T10:46:59;99809.31;;;23.35;47.39
62544;BME280;48597;49.030;1.822;2023-07-24T10:49:24;99816.34;;;23.34;47.41
62544;BME280;48597;49.030;1.822;2023-07-24T10:51:55;99817.94;;;23.35;47.32
62544;BME280;48597;49.030;1.822;2023-07-24T10:54:21;99809.03;;;23.33;47.55
62544;BME280;48597;49.030;1.822;2023-07-24T10:56:46;99818.44;;;23.33;47.39
62544;BME280;48597;49.030;1.822;2023-07-24T10:59:12;99814.78;;;23.33;47.57
62544;BME280;48597;49.030;1.822;2023-07-24T11:01:40;99820.81;;;23.35;47.43
62544;BME280;48597;49.030;1.822;2023-07-24T11:04:06;99811.41;;;23.34;47.23
62544;BME280;48597;49.030;1.822;2023-07-24T11:06:32;99817.94;;;23.35;47.21
62544;BME280;48597;49.030;1.822;2023-07-24T11:08:59;99821.59;;;23.35;47.31
62544;BME280;48597;49.030;1.822;2023-07-24T11:11:31;99819.53;;;23.36;47.26
62544;BME280;48597;49.030;1.822;2023-07-24T11:13:57;99796.53;;;23.36;47.40
62544;BME280;48597;49.030;1.822;2023-07-24T11:16:22;99800.19;;;23.36;47.42
62544;BME280;48597;49.030;1.822;2023-07-24T11:18:49;99805.94;;;23.36;47.13
62544;BME280;48597;49.030;1.822;2023-07-24T11:21:15;99806.75;;;23.37;47.22
62544;BME280;48597;49.030;1.822;2023-07-24T11:23:59;99808.28;;;23.38;47.29
62544;BME280;48597;49.030;1.822;2023-07-24T11:26:26;99802.53;;;23.38;47.22
62544;BME280;48597;49.030;1.822;2023-07-24T11:28:52;99802.53;;;23.38;47.30
62544;BME280;48597;49.030;1.822;2023-07-24T11:31:18;99798.09;;;23.37;47.25
62544;BME280;48597;49.030;1.822;2023-07-24T11:33:51;99806.22;;;23.38;47.23
62544;BME280;48597;49.030;1.822;2023-07-24T11:36:17;99806.75;;;23.37;47.34
62544;BME280;48597;49.030;1.822;2023-07-24T11:38:46;99803.34;;;23.38;47.23
62544;BME280;48597;49.030;1.822;2023-07-24T11:41:12;99802.53;;;23.38;47.20
62544;BME280;48597;49.030;1.822;2023-07-24T11:43:45;99810.66;;;23.39;47.45
62544;BME280;48597;49.030;1.822;2023-07-24T11:46:11;99812.75;;;23.39;47.33
62544;BME280;48597;49.030;1.822;2023-07-24T11:48:41;99812.75;;;23.39;47.37
62544;BME280;48597;49.030;1.822;2023-07-24T11:51:06;99807.00;;;23.39;47.13
62544;BME280;48597;49.030;1.822;2023-07-24T11:53:31;99808.59;;;23.40;47.20
62544;BME280;48597;49.030;1.822;2023-07-24T11:56:00;99796.28;;;23.39;47.18
62544;BME280;48597;49.030;1.822;2023-07-24T11:58:28;99801.75;;;23.37;47.45
62544;BME280;48597;49.030;1.822;2023-07-24T12:00:55;99808.28;;;23.38;47.10
62544;BME280;48597;49.030;1.822;2023-07-24T12:03:28;99825.06;;;23.39;47.16
62544;BME280;48597;49.030;1.822;2023-07-24T12:05:53;99802.03;;;23.39;47.39
62544;BME280;48597;49.030;1.822;2023-07-24T12:08:35;99806.50;;;23.40;47.33
62544;BME280;48597;49.030;1.822;2023-07-24T12:11:01;99810.16;;;23.41;47.29
62544;BME280;48597;49.030;1.822;2023-07-24T12:13:27;99807.28;;;23.41;47.06
62544;BME280;48597;49.030;1.822;2023-07-24T12:15:53;99805.72;;;23.40;47.15
62544;BME280;48597;49.030;1.822;2023-07-24T12:18:19;99818.81;;;23.41;47.08
62544;BME280;48597;49.030;1.822;2023-07-24T12:20:44;99808.88;;;23.42;47.19
62544;BME280;48597;49.030;1.822;2023-07-24T12:23:10;99805.22;;;23.41;47.07
62544;BME280;48597;49.030;1.822;2023-07-24T12:25:35;99811.75;;;23.42;47.11
62544;BME280;48597;49.030;1.822;2023-07-24T12:28:00;99821.97;;;23.43;47.12
62544;BME280;48597;49.030;1.822;2023-07-24T12:30:26;99821.19;;;23.42;47.05
62544;BME280;48597;49.030;1.822;2023-07-24T12:32:51;99829.00;;;23.42;47.26
62544;BME280;48597;49.030;1.822;2023-07-24T12:35:17;99827.72;;;23.43;47.03
62544;BME280;48597;49.030;1.822;2023-07-24T12:37:45;99830.59;;;23.43;47.12
62544;BME280;48597;49.030;1.822;2023-07-24T12:40:11;99830.91;;;23.45;47.07
62544;BME280;48597;49.030;1.822;2023-07-24T12:42:37;99840.81;;;23.44;47.19
62544;BME280;48597;49.030;1.822;2023-07-24T12:45:03;99833.47;;;23.43;47.18
62544;BME280;48597;49.030;1.822;2023-07-24T12:47:29;99844.47;;;23.44;47.16
62544;BME280;48597;49.030;1.822;2023-07-24T12:49:54;99839.22;;;23.43;47.05
62544;BME280;48597;49.030;1.822;2023-07-24T12:52:21;99848.16;;;23.45;47.27
62544;BME280;48597;49.030;1.822;2023-07-24T12:54:47;99830.91;;;23.45;47.04
62544;BME280;48597;49.030;1.822;2023-07-24T12:57:12;99853.09;;;23.44;47.25
62544;BME280;48597;49.030;1.822;2023-07-24T12:59:37;99858.38;;;23.46;47.07